createdAt,value
2018-08-24T00:01:07.638Z,94821.00
2018-08-24T00:03:39.373Z,94820.00
2018-08-24T00:06:11.463Z,94823.00
2018-08-24T00:08:43.760Z,94819.00
2018-08-24T00:11:15.557Z,94821.00
2018-08-24T00:13:47.255Z,94822.00
2018-08-24T00:16:24.715Z,94818.00
2018-08-24T00:18:56.853Z,94816.00
2018-08-24T00:21:28.778Z,94822.00
2018-08-24T00:24:00.749Z,94819.00
2018-08-24T00:26:35.065Z,94823.00
2018-08-24T00:29:07.594Z,94822.00
2018-08-24T00:31:40.383Z,94827.00
2018-08-24T00:34:12.472Z,94832.00
2018-08-24T00:36:44.425Z,94832.00
2018-08-24T00:39:16.632Z,94832.00
2018-08-24T00:41:48.403Z,94829.00
2018-08-24T00:44:20.832Z,94827.00
2018-08-24T00:46:53.882Z,94820.00
2018-08-24T00:49:25.933Z,94823.00
2018-08-24T00:51:57.792Z,94823.00
2018-08-24T00:54:29.820Z,94821.00
2018-08-24T00:57:02.042Z,94816.00
2018-08-24T00:59:33.892Z,94824.00
2018-08-24T01:02:06.058Z,94814.00
2018-08-24T01:04:38.448Z,94816.00
2018-08-24T01:07:11.454Z,94811.00
2018-08-24T01:09:43.823Z,94812.00
2018-08-24T01:12:17.593Z,94805.00
2018-08-24T01:14:50.082Z,94807.00
2018-08-24T01:17:26.966Z,94804.00
2018-08-24T01:19:59.130Z,94806.00
2018-08-24T01:22:31.097Z,94805.00
2018-08-24T01:25:03.369Z,94800.00
2018-08-24T01:27:36.558Z,94804.00
2018-08-24T01:30:09.284Z,94808.00
2018-08-24T01:32:41.164Z,94810.00
2018-08-24T01:35:13.486Z,94801.00
2018-08-24T01:37:45.479Z,94805.00
2018-08-24T01:40:17.519Z,94804.00
2018-08-24T01:42:49.806Z,94798.00
2018-08-24T01:45:22.076Z,94797.00
2018-08-24T01:47:53.887Z,94799.00
2018-08-24T01:50:25.945Z,94805.00
2018-08-24T01:52:57.993Z,94804.00
2018-08-24T01:55:30.507Z,94806.00
2018-08-24T01:58:03.012Z,94804.00
2018-08-24T02:00:35.445Z,94798.00
2018-08-24T02:03:08.338Z,94803.00
2018-08-24T02:05:40.918Z,94806.00
2018-08-24T02:08:13.383Z,94802.00
2018-08-24T02:10:45.517Z,94804.00
2018-08-24T02:13:22.548Z,94803.00
2018-08-24T02:15:55.792Z,94799.00
2018-08-24T02:18:32.811Z,94797.00
2018-08-24T02:21:09.903Z,94800.00
2018-08-24T02:23:41.704Z,94799.00
2018-08-24T02:26:13.827Z,94795.00
2018-08-24T02:28:45.901Z,94793.00
2018-08-24T02:31:17.820Z,94795.00
2018-08-24T02:33:49.738Z,94794.00
2018-08-24T02:36:21.886Z,94797.00
2018-08-24T02:38:53.709Z,94798.00
2018-08-24T02:41:25.496Z,94800.00
2018-08-24T02:43:57.823Z,94800.00
2018-08-24T02:46:30.014Z,94801.00
2018-08-24T02:49:02.186Z,94792.00
2018-08-24T02:51:34.196Z,94786.00
2018-08-24T02:54:06.379Z,94785.00
2018-08-24T02:56:38.443Z,94785.00
2018-08-24T02:59:10.094Z,94782.00
2018-08-24T03:01:43.053Z,94782.00
2018-08-24T03:04:16.149Z,94787.00
2018-08-24T03:06:48.061Z,94790.00
2018-08-24T03:09:19.730Z,94793.00
2018-08-24T03:11:51.715Z,94797.00
2018-08-24T03:14:23.711Z,94801.00
2018-08-24T03:17:00.699Z,94797.00
2018-08-24T03:19:33.706Z,94798.00
2018-08-24T03:22:06.242Z,94795.00
2018-08-24T03:24:38.137Z,94797.00
2018-08-24T03:27:10.012Z,94795.00
2018-08-24T03:29:41.971Z,94796.00
2018-08-24T03:32:13.820Z,94791.00
2018-08-24T03:34:45.596Z,94793.00
2018-08-24T03:37:17.861Z,94797.00
2018-08-24T03:39:50.125Z,94798.00
2018-08-24T03:42:22.165Z,94801.00
2018-08-24T03:44:54.861Z,94804.00
2018-08-24T03:47:26.822Z,94801.00
2018-08-24T03:49:59.328Z,94801.00
2018-08-24T03:52:32.214Z,94794.00
2018-08-24T03:55:04.619Z,94792.00
2018-08-24T03:57:37.107Z,94794.00
2018-08-24T04:00:09.266Z,94801.00
2018-08-24T04:02:41.336Z,94799.00
2018-08-24T04:05:13.170Z,94801.00
2018-08-24T04:07:45.801Z,94798.00
2018-08-24T04:10:17.985Z,94797.00
2018-08-24T04:12:49.820Z,94799.00
2018-08-24T04:15:22.089Z,94799.00
2018-08-24T04:17:54.909Z,94796.00
2018-08-24T04:20:26.765Z,94797.00
2018-08-24T04:22:59.067Z,94796.00
2018-08-24T04:25:31.125Z,94803.00
2018-08-24T04:28:03.013Z,94804.00
2018-08-24T04:30:35.419Z,94796.00
2018-08-24T04:33:07.562Z,94801.00
2018-08-24T04:35:39.509Z,94797.00
2018-08-24T04:38:12.508Z,94804.00
2018-08-24T04:40:44.783Z,94805.00
2018-08-24T04:43:16.798Z,94807.00
2018-08-24T04:45:49.256Z,94802.00
2018-08-24T04:48:21.462Z,94809.00
2018-08-24T04:50:53.841Z,94806.00
2018-08-24T04:53:26.145Z,94799.00
2018-08-24T04:55:57.993Z,94798.00
2018-08-24T04:58:29.940Z,94798.00
2018-08-24T05:01:02.297Z,94799.00
2018-08-24T05:03:34.509Z,94801.00
2018-08-24T05:06:07.077Z,94801.00
2018-08-24T05:08:39.644Z,94795.00
2018-08-24T05:11:11.959Z,94791.00
2018-08-24T05:13:43.931Z,94792.00
2018-08-24T05:16:15.907Z,94791.00
2018-08-24T05:18:47.919Z,94793.00
2018-08-24T05:21:20.170Z,94792.00
2018-08-24T05:23:52.191Z,94788.00
2018-08-24T05:26:24.282Z,94787.00
2018-08-24T05:28:56.612Z,94782.00
2018-08-24T05:31:29.724Z,94783.00
2018-08-24T05:34:03.054Z,94777.00
2018-08-24T05:36:35.033Z,94775.00
2018-08-24T05:39:08.914Z,94775.00
2018-08-24T05:41:40.993Z,94769.00
2018-08-24T05:44:12.890Z,94772.00
2018-08-24T05:46:45.213Z,94783.00
2018-08-24T05:49:17.159Z,94773.00
2018-08-24T05:51:49.562Z,94778.00
2018-08-24T05:54:21.824Z,94776.00
2018-08-24T05:56:54.085Z,94774.00
2018-08-24T05:59:26.199Z,94768.00
2018-08-24T06:01:58.248Z,94768.00
2018-08-24T06:04:30.263Z,94763.00
2018-08-24T06:07:02.174Z,94762.00
2018-08-24T06:09:35.175Z,94762.00
2018-08-24T06:12:07.799Z,94763.00
2018-08-24T06:14:39.893Z,94764.00
2018-08-24T06:17:16.594Z,94767.00
2018-08-24T06:19:48.745Z,94762.00
2018-08-24T06:22:20.926Z,94766.00
2018-08-24T06:24:53.198Z,94763.00
2018-08-24T06:27:25.027Z,94767.00
2018-08-24T06:29:57.293Z,94769.00
2018-08-24T06:32:29.401Z,94769.00
2018-08-24T06:35:01.583Z,94774.00
2018-08-24T06:37:33.726Z,94771.00
2018-08-24T06:40:06.049Z,94768.00
2018-08-24T06:42:38.690Z,94769.00
2018-08-24T06:45:10.951Z,94769.00
2018-08-24T06:47:43.431Z,94772.00
2018-08-24T06:50:16.038Z,94771.00
2018-08-24T06:52:48.338Z,94767.00
2018-08-24T06:55:20.382Z,94768.00
2018-08-24T06:57:52.890Z,94770.00
2018-08-24T07:00:30.846Z,94769.00
2018-08-24T07:03:03.409Z,94767.00
2018-08-24T07:05:35.884Z,94767.00
2018-08-24T07:08:07.954Z,94764.00
2018-08-24T07:10:40.274Z,94755.00
2018-08-24T07:13:12.269Z,94753.00
2018-08-24T07:15:44.254Z,94753.00
2018-08-24T07:18:16.528Z,94750.00
2018-08-24T07:20:48.597Z,94751.00
2018-08-24T07:23:20.881Z,94754.00
2018-08-24T07:25:53.092Z,94750.00
2018-08-24T07:28:25.298Z,94749.00
2018-08-24T07:30:57.416Z,94749.00
2018-08-24T07:33:29.780Z,94749.00
2018-08-24T07:36:01.961Z,94752.00
2018-08-24T07:38:34.107Z,94745.00
2018-08-24T07:41:06.482Z,94747.00
2018-08-24T07:43:38.883Z,94745.00
2018-08-24T07:46:11.159Z,94742.00
2018-08-24T07:48:42.981Z,94739.00
2018-08-24T07:51:15.618Z,94739.00
2018-08-24T07:53:49.248Z,94732.00
2018-08-24T07:56:21.351Z,94734.00
2018-08-24T07:58:53.746Z,94734.00
2018-08-24T08:01:26.260Z,94734.00
2018-08-24T08:04:00.008Z,94723.00
2018-08-24T08:06:32.429Z,94721.00
2018-08-24T08:09:05.279Z,94717.00
2018-08-24T08:11:41.659Z,94719.00
2018-08-24T08:14:13.883Z,94722.00
2018-08-24T08:16:46.325Z,94723.00
2018-08-24T08:19:18.570Z,94719.00
2018-08-24T08:21:50.891Z,94716.00
2018-08-24T08:24:23.104Z,94713.00
2018-08-24T08:26:55.872Z,94713.00
2018-08-24T08:29:33.353Z,94712.00
2018-08-24T08:32:05.603Z,94710.00
2018-08-24T08:34:53.220Z,94707.00
2018-08-24T08:37:26.181Z,94705.00
2018-08-24T08:40:03.688Z,94704.00
2018-08-24T08:42:36.620Z,94704.00
2018-08-24T08:45:09.869Z,94703.00
2018-08-24T08:47:42.337Z,94695.00
2018-08-24T08:50:14.727Z,94699.00
2018-08-24T08:52:48.403Z,94704.00
2018-08-24T08:55:21.861Z,94687.00
2018-08-24T08:57:54.820Z,94687.00
2018-08-24T09:00:27.253Z,94684.00
2018-08-24T09:03:00.236Z,94689.00
2018-08-24T09:05:32.797Z,94688.00
2018-08-24T09:08:05.198Z,94675.00
2018-08-24T09:10:37.682Z,94687.00
2018-08-24T09:13:09.896Z,94687.00
2018-08-24T09:15:42.182Z,94682.00
2018-08-24T09:18:19.323Z,94691.00
2018-08-24T09:20:56.171Z,94679.00
2018-08-24T09:23:33.438Z,94685.00
2018-08-24T09:26:10.885Z,94682.00
2018-08-24T09:28:43.528Z,94681.00
2018-08-24T09:31:24.310Z,94672.00
2018-08-24T09:33:56.638Z,94671.00
2018-08-24T09:36:28.953Z,94673.00
2018-08-24T09:39:01.421Z,94671.00
2018-08-24T09:41:33.592Z,94664.00
2018-08-24T09:44:05.795Z,94656.00
2018-08-24T09:46:43.730Z,94657.00
2018-08-24T09:49:21.095Z,94651.00
2018-08-24T09:51:53.683Z,94652.00
2018-08-24T09:54:25.662Z,94645.00
2018-08-24T09:56:57.958Z,94635.00
2018-08-24T09:59:30.262Z,94625.00
2018-08-24T10:02:07.611Z,94628.00
2018-08-24T10:05:43.570Z,94634.00
2018-08-24T10:08:52.375Z,94628.00
2018-08-24T10:11:24.889Z,94625.00
2018-08-24T10:13:58.842Z,94624.00
2018-08-24T10:16:31.357Z,94624.00
2018-08-24T10:19:04.533Z,94615.00
2018-08-24T10:21:37.174Z,94615.00
2018-08-24T10:24:10.569Z,94616.00
2018-08-24T10:26:42.796Z,94620.00
2018-08-24T10:29:15.556Z,94607.00
2018-08-24T10:31:47.919Z,94601.00
2018-08-24T10:34:20.114Z,94605.00
2018-08-24T10:36:52.303Z,94597.00
2018-08-24T10:39:24.388Z,94593.00
2018-08-24T10:41:56.531Z,94594.00
2018-08-24T10:44:29.750Z,94590.00
2018-08-24T10:47:02.087Z,94583.00
2018-08-24T10:49:34.853Z,94570.00
2018-08-24T10:52:07.353Z,94580.00
2018-08-24T10:54:39.812Z,94580.00
2018-08-24T10:57:12.478Z,94577.00
2018-08-24T10:59:45.492Z,94571.00
2018-08-24T11:02:17.514Z,94569.00
2018-08-24T11:04:49.791Z,94567.00
2018-08-24T11:07:22.137Z,94578.00
2018-08-24T11:09:55.041Z,94561.00
2018-08-24T11:12:31.646Z,94562.00
2018-08-24T11:15:05.177Z,94556.00
2018-08-24T11:17:42.305Z,94555.00
2018-08-24T11:20:14.629Z,94550.00
2018-08-24T11:22:46.949Z,94552.00
2018-08-24T11:25:19.104Z,94545.00
2018-08-24T11:30:32.817Z,94545.00
2018-08-24T11:33:05.918Z,94540.00
2018-08-24T11:35:38.098Z,94539.00
2018-08-24T11:38:10.418Z,94531.00
2018-08-24T11:40:42.773Z,94538.00
2018-08-24T11:43:15.189Z,94529.00
2018-08-24T11:45:47.667Z,94528.00
2018-08-24T11:48:20.138Z,94520.00
2018-08-24T11:50:52.879Z,94512.00
2018-08-24T11:53:25.250Z,94516.00
2018-08-24T11:55:57.582Z,94515.00
2018-08-24T11:58:30.100Z,94503.00
2018-08-24T12:05:24.719Z,94496.00
2018-08-24T12:07:56.872Z,94493.00
2018-08-24T12:10:30.011Z,94489.00
2018-08-24T12:13:02.408Z,94494.00
2018-08-24T12:15:35.092Z,94480.00
2018-08-24T12:18:07.577Z,94471.00
2018-08-24T12:20:40.470Z,94466.00
2018-08-24T12:23:12.871Z,94474.00
2018-08-24T12:28:58.876Z,94457.00
2018-08-24T12:31:30.899Z,94459.00
2018-08-24T12:34:04.100Z,94457.00
2018-08-24T12:36:36.277Z,94450.00
2018-08-24T12:39:11.457Z,94451.00
2018-08-24T12:41:43.792Z,94446.00
2018-08-24T12:44:15.823Z,94445.00
2018-08-24T12:46:48.469Z,94442.00
2018-08-24T12:49:20.797Z,94444.00
2018-08-24T12:51:52.701Z,94441.00
2018-08-24T12:54:25.122Z,94442.00
2018-08-24T12:56:57.467Z,94445.00
2018-08-24T12:59:29.754Z,94437.00
2018-08-24T13:02:02.344Z,94436.00
2018-08-24T13:04:35.620Z,94436.00
2018-08-24T13:07:07.820Z,94440.00
2018-08-24T13:09:40.037Z,94433.00
2018-08-24T13:12:12.091Z,94426.00
2018-08-24T13:14:44.012Z,94427.00
2018-08-24T13:17:16.805Z,94430.00
2018-08-24T13:19:48.965Z,94434.00
2018-08-24T13:22:20.969Z,94427.00
2018-08-24T13:24:53.227Z,94428.00
2018-08-24T13:27:25.655Z,94431.00
2018-08-24T13:29:58.203Z,94427.00
2018-08-24T13:32:30.281Z,94420.00
2018-08-24T13:35:15.141Z,94423.00
2018-08-24T13:37:48.411Z,94414.00
2018-08-24T13:40:20.826Z,94417.00
2018-08-24T13:42:53.237Z,94410.00
2018-08-24T13:45:25.910Z,94404.00
2018-08-24T13:47:59.300Z,94411.00
2018-08-24T13:50:31.476Z,94408.00
2018-08-24T13:53:03.856Z,94401.00
2018-08-24T13:55:36.189Z,94400.00
2018-08-24T13:58:08.405Z,94394.00
2018-08-24T14:00:40.683Z,94390.00
2018-08-24T14:03:12.628Z,94395.00
2018-08-24T14:05:44.985Z,94389.00
2018-08-24T14:08:16.880Z,94387.00
2018-08-24T14:10:49.817Z,94383.00
2018-08-24T14:13:21.640Z,94377.00
2018-08-24T14:15:54.415Z,94370.00
2018-08-24T14:18:26.795Z,94375.00
2018-08-24T14:20:59.129Z,94378.00
2018-08-24T14:23:31.476Z,94372.00
2018-08-24T14:26:03.415Z,94368.00
2018-08-24T14:28:35.520Z,94372.00
2018-08-24T14:31:08.045Z,94371.00
2018-08-24T14:33:40.309Z,94363.00
2018-08-24T14:36:12.555Z,94364.00
2018-08-24T14:38:44.805Z,94366.00
2018-08-24T14:41:17.925Z,94364.00
2018-08-24T14:43:52.846Z,94368.00
2018-08-24T14:46:25.167Z,94363.00
2018-08-24T14:48:57.382Z,94359.00
2018-08-24T14:51:29.851Z,94363.00
2018-08-24T14:54:02.106Z,94356.00
2018-08-24T14:56:34.259Z,94357.00
2018-08-24T14:59:06.798Z,94353.00
2018-08-24T15:01:39.084Z,94349.00
2018-08-24T15:04:10.699Z,94344.00
2018-08-24T15:06:43.011Z,94343.00
2018-08-24T15:09:15.371Z,94345.00
2018-08-24T15:11:48.208Z,94343.00
2018-08-24T15:14:20.108Z,94341.00
2018-08-24T15:16:52.148Z,94341.00
2018-08-24T15:19:23.818Z,94343.00
2018-08-24T15:21:56.470Z,94339.00
2018-08-24T15:24:28.869Z,94337.00
2018-08-24T15:27:00.869Z,94342.00
2018-08-24T15:29:33.487Z,94344.00
2018-08-24T15:32:05.971Z,94342.00
2018-08-24T15:34:38.194Z,94348.00
2018-08-24T15:37:10.657Z,94344.00
2018-08-24T15:39:43.479Z,94345.00
2018-08-24T15:42:15.477Z,94344.00
2018-08-24T15:44:47.720Z,94351.00
2018-08-24T15:47:19.549Z,94349.00
2018-08-24T15:49:52.086Z,94343.00
2018-08-24T15:52:24.269Z,94349.00
2018-08-24T15:54:56.914Z,94343.00
2018-08-24T15:57:29.181Z,94340.00
2018-08-24T16:00:02.391Z,94343.00
2018-08-24T16:02:34.832Z,94340.00
2018-08-24T16:05:07.121Z,94339.00
2018-08-24T16:07:40.468Z,94353.00
2018-08-24T16:10:12.945Z,94351.00
2018-08-24T16:12:45.448Z,94353.00
2018-08-24T16:15:17.874Z,94350.00
2018-08-24T16:17:54.936Z,94354.00
2018-08-24T16:20:27.161Z,94351.00
2018-08-24T16:23:00.371Z,94350.00
2018-08-24T16:25:32.871Z,94354.00
2018-08-24T16:28:05.170Z,94359.00
2018-08-24T16:30:37.076Z,94357.00
2018-08-24T16:33:10.122Z,94359.00
2018-08-24T16:35:42.991Z,94357.00
2018-08-24T16:38:16.548Z,94365.00
2018-08-24T16:40:49.230Z,94365.00
2018-08-24T16:43:22.587Z,94360.00
2018-08-24T16:45:56.140Z,94366.00
2018-08-24T16:48:29.077Z,94369.00
2018-08-24T16:51:01.541Z,94371.00
2018-08-24T16:53:34.762Z,94371.00
2018-08-24T16:56:09.122Z,94375.00
2018-08-24T16:58:42.770Z,94374.00
2018-08-24T17:01:15.981Z,94377.00
2018-08-24T17:03:48.720Z,94385.00
2018-08-24T17:06:21.751Z,94387.00
2018-08-24T17:08:54.589Z,94385.00
2018-08-24T17:11:27.155Z,94386.00
2018-08-24T17:14:00.487Z,94395.00
2018-08-24T17:16:32.312Z,94391.00
2018-08-24T17:19:04.993Z,94398.00
2018-08-24T17:21:38.132Z,94399.00
2018-08-24T17:24:10.635Z,94405.00
2018-08-24T17:26:44.222Z,94405.00
2018-08-24T17:29:16.367Z,94401.00
2018-08-24T17:31:49.169Z,94408.00
2018-08-24T17:34:21.084Z,94405.00
2018-08-24T17:36:53.411Z,94409.00
2018-08-24T17:39:26.297Z,94413.00
2018-08-24T17:41:58.768Z,94421.00
2018-08-24T17:44:31.412Z,94431.00
2018-08-24T17:47:03.444Z,94430.00
2018-08-24T17:49:35.873Z,94428.00
2018-08-24T17:52:08.184Z,94435.00
2018-08-24T17:54:41.114Z,94445.00
2018-08-24T17:57:14.281Z,94449.00
2018-08-24T17:59:46.747Z,94451.00
2018-08-24T18:02:18.543Z,94451.00
2018-08-24T18:04:50.874Z,94459.00
2018-08-24T18:07:23.322Z,94462.00
2018-08-24T18:09:55.222Z,94461.00
2018-08-24T18:12:27.568Z,94468.00
2018-08-24T18:14:59.179Z,94461.00
2018-08-24T18:17:30.959Z,94464.00
2018-08-24T18:20:03.662Z,94465.00
2018-08-24T18:22:35.824Z,94463.00
2018-08-24T18:25:09.157Z,94469.00
2018-08-24T18:27:41.561Z,94473.00
2018-08-24T18:30:14.254Z,94472.00
2018-08-24T18:32:46.530Z,94473.00
2018-08-24T18:35:18.978Z,94476.00
2018-08-24T18:37:51.739Z,94475.00
2018-08-24T18:40:24.192Z,94478.00
2018-08-24T18:42:57.406Z,94479.00
2018-08-24T18:45:29.229Z,94478.00
2018-08-24T18:48:01.899Z,94480.00
2018-08-24T18:50:34.723Z,94483.00
2018-08-24T18:53:07.726Z,94490.00
2018-08-24T18:55:41.812Z,94487.00
2018-08-24T18:58:15.320Z,94482.00
2018-08-24T19:00:48.347Z,94487.00
2018-08-24T19:03:21.491Z,94486.00
2018-08-24T19:05:54.460Z,94492.00
2018-08-24T19:08:32.723Z,94486.00
2018-08-24T19:11:11.820Z,94484.00
2018-08-24T19:13:46.109Z,94489.00
2018-08-24T19:16:19.262Z,94487.00
2018-08-24T19:18:57.818Z,94485.00
2018-08-24T19:21:35.825Z,94491.00
2018-08-24T19:24:08.750Z,94489.00
2018-08-24T19:26:41.622Z,94490.00
2018-08-24T19:29:18.640Z,94485.00
2018-08-24T19:31:51.824Z,94481.00
2018-08-24T19:34:24.251Z,94479.00
2018-08-24T19:36:57.368Z,94479.00
2018-08-24T19:39:30.201Z,94482.00
2018-08-24T19:42:08.470Z,94485.00
2018-08-24T19:44:41.385Z,94485.00
2018-08-24T19:47:19.278Z,94485.00
2018-08-24T19:49:52.453Z,94486.00
2018-08-24T19:52:26.072Z,94483.00
2018-08-24T19:54:59.734Z,94479.00
2018-08-24T19:57:37.525Z,94475.00
2018-08-24T20:00:10.106Z,94475.00
2018-08-24T20:02:43.446Z,94475.00
2018-08-24T20:05:16.681Z,94473.00
2018-08-24T20:07:55.660Z,94475.00
2018-08-24T20:10:29.659Z,94476.00
2018-08-24T20:13:02.857Z,94480.00
2018-08-24T20:15:41.013Z,94480.00
2018-08-24T20:18:14.205Z,94481.00
2018-08-24T20:20:47.205Z,94481.00
2018-08-24T20:23:21.096Z,94486.00
2018-08-24T20:25:54.734Z,94487.00
2018-08-24T20:28:29.653Z,94491.00
2018-08-24T20:31:03.259Z,94489.00
2018-08-24T20:33:36.236Z,94487.00
2018-08-24T20:36:09.372Z,94491.00
2018-08-24T20:38:43.057Z,94487.00
2018-08-24T20:41:16.291Z,94491.00
2018-08-24T20:43:50.599Z,94495.00
2018-08-24T20:46:23.866Z,94495.00
2018-08-24T20:48:57.550Z,94496.00
2018-08-24T20:51:30.643Z,94497.00
2018-08-24T20:54:03.753Z,94499.00
2018-08-24T20:56:37.937Z,94503.00
2018-08-24T20:59:12.486Z,94496.00
2018-08-24T21:01:46.402Z,94499.00
2018-08-24T21:04:20.688Z,94495.00
2018-08-24T21:06:55.006Z,94496.00
2018-08-24T21:09:28.217Z,94504.00
2018-08-24T21:12:01.823Z,94508.00
2018-08-24T21:14:34.987Z,94513.00
2018-08-24T21:17:13.576Z,94513.00
2018-08-24T21:19:46.755Z,94513.00
2018-08-24T21:22:20.666Z,94516.00
2018-08-24T21:24:53.754Z,94523.00
2018-08-24T21:27:27.141Z,94515.00
2018-08-24T21:30:01.399Z,94518.00
2018-08-24T21:32:35.852Z,94520.00
2018-08-24T21:35:08.775Z,94518.00
2018-08-24T21:37:42.423Z,94520.00
2018-08-24T21:40:15.180Z,94522.00
2018-08-24T21:42:47.807Z,94523.00
2018-08-24T21:45:20.395Z,94521.00
2018-08-24T21:47:53.837Z,94518.00
2018-08-24T21:50:26.907Z,94520.00
2018-08-24T21:53:00.175Z,94525.00
2018-08-24T21:55:32.238Z,94522.00
2018-08-24T21:58:05.151Z,94523.00
2018-08-24T22:00:43.090Z,94525.00
2018-08-24T22:03:16.226Z,94524.00
2018-08-24T22:05:49.457Z,94519.00
2018-08-24T22:08:21.968Z,94526.00
2018-08-24T22:10:54.933Z,94522.00
2018-08-24T22:13:27.645Z,94526.00
2018-08-24T22:16:00.063Z,94521.00
2018-08-24T22:18:32.470Z,94524.00
2018-08-24T22:21:05.235Z,94521.00
2018-08-24T22:23:38.304Z,94518.00
2018-08-24T22:26:12.477Z,94520.00
2018-08-24T22:28:46.312Z,94511.00
2018-08-24T22:31:20.853Z,94510.00
2018-08-24T22:33:56.580Z,94515.00
2018-08-24T22:36:28.682Z,94508.00
2018-08-24T22:39:03.227Z,94519.00
2018-08-24T22:41:35.734Z,94517.00
2018-08-24T22:44:08.337Z,94520.00
2018-08-24T22:46:40.770Z,94517.00
2018-08-24T22:49:12.892Z,94515.00
2018-08-24T22:51:44.738Z,94515.00
2018-08-24T22:54:16.559Z,94507.00
2018-08-24T22:56:49.452Z,94506.00
2018-08-24T22:59:21.988Z,94515.00
2018-08-24T23:01:54.373Z,94516.00
2018-08-24T23:04:26.462Z,94518.00
2018-08-24T23:06:59.008Z,94510.00
2018-08-24T23:09:31.971Z,94508.00
2018-08-24T23:12:04.082Z,94513.00
2018-08-24T23:14:37.252Z,94510.00
2018-08-24T23:17:10.061Z,94506.00
2018-08-24T23:19:42.526Z,94503.00
2018-08-24T23:22:14.759Z,94505.00
2018-08-24T23:24:47.200Z,94510.00
2018-08-24T23:27:19.401Z,94512.00
2018-08-24T23:29:51.470Z,94512.00
2018-08-24T23:32:24.417Z,94512.00
2018-08-24T23:34:56.768Z,94510.00
2018-08-24T23:37:29.211Z,94510.00
2018-08-24T23:40:01.279Z,94513.00
2018-08-24T23:42:33.740Z,94507.00
2018-08-24T23:45:05.845Z,94505.00
2018-08-24T23:47:38.078Z,94499.00
2018-08-24T23:50:10.593Z,94500.00
2018-08-24T23:52:42.453Z,94499.00
2018-08-24T23:55:14.548Z,94498.00
2018-08-24T23:57:46.708Z,94492.00
